Alton, AL

10:56 AM CDT on May 27, 2015 (GMT -0500)
The Oaks | | Change Station
CLOSE
Current Station
Personal Weather Station
Location: Trussville, AL
Elevation: 801 ft
Nearby Weather Stations

Elev 801 ft 33.61 °N, 86.60 °W | Updated 9 minutes ago

Overcast
Overcast
76.3 °F
Feels Like 77 °F
N
1.1
Wind Variable Wind from SSE

Today
High -- | Low -- °F
--% Chance of Precip.
Yesterday
High -- | Low -- °F
Precip. -- in
5:39 AM 7:48 PM
Waxing Gibbous, 68% visible
Pressure 30.24 in
Visibility 10.0 miles
Clouds Overcast 1500 ft
Heat Index 77 °F
Dew Point 71 °F
Humidity 84%
Rainfall 0.00 in
Snow Depth Not available.
UV 3 out of 12
Pollen .70 out of 12
Air Quality Not available.
Flu Activity Sporadic
SPECI KBHM 271530Z 21004KT 10SM OVC015 24/20 A3024 RMK AO2 T02390200

More Conditions Fewer Conditions

Pressure 30.24 in
Visibility 10.0 miles
Clouds Overcast 1500 ft
Heat Index 77 °F
Dew Point 71 °F
Humidity 84%
Rainfall 0.00 in
Snow Depth Not available.
UV 3 out of 12
Pollen .70 out of 12
Air Quality Not available.
Flu Activity Sporadic
SPECI KBHM 271530Z 21004KT 10SM OVC015 24/20 A3024 RMK AO2 T02390200

More Conditions Fewer Conditions

10-Day Weather Forecast

Almanac

Astronomy

May. 27, 2015 Rise Set
Actual Time
Civil Twilight
Nautical Twilight
Astronomical Twilight
Moon
Length of Visible Light
Length of Day
Tomorrow will be .
, % of the Moon is Illuminated

Today's Extremes

State Highs State Lows

Community

WunderPhotos

Upload Photos

1,824,699 photos uploaded!

WunderBlogs® & News

Nearby

Air Quality

  Air Quality AQ Index Pollutant
Not available.

Snow Depth

Station Depth Elevation

Earthquake Activity

City Distance Mag. Time & Date
Minimum magnitude displayed is 2.5.

Coastal Water Temperatures

Place Temperature

Stations

Nearby Weather Stations

Station Location Temp. Windchill Dew Point Humidity Wind Precip. Elev Updated Type